Time;durP1;ratioP1;P1;durP2;ratioP2;P2;SDS_P1;SDS_P2;PMS_P1;PMS_P2;Temp;Humidity;BMP_temperature;BMP_pressure;BME280_temperature;BME280_humidity;BME280_pressure;Samples;Min_cycle;Max_cycle;Signal;HPM_P1;HPM_P2
2023/02/05 00:03:50;;;;;;;;;;;17.80;48.80;;;;;;10164537;28;884;-75
2023/02/05 00:08:45;;;;;;;;;;;17.80;48.80;;;;;;10146917;28;1902;-75
2023/02/05 00:13:40;;;;;;;;;;;17.80;48.80;;;;;;10164901;28;905;-75
2023/02/05 00:18:36;;;;;;;;;;;17.80;48.90;;;;;;10164801;28;838;-75
2023/02/05 00:23:31;;;;;;;;;;;17.70;48.80;;;;;;10164026;28;975;-75
2023/02/05 00:28:27;;;;;;;;;;;17.80;48.80;;;;;;10164492;28;1895;-75
2023/02/05 00:33:22;;;;;;;;;;;17.80;48.80;;;;;;10164967;28;851;-75
2023/02/05 00:38:17;;;;;;;;;;;17.80;48.80;;;;;;10163531;28;1171;-75
2023/02/05 00:43:13;;;;;;;;;;;17.80;48.80;;;;;;10164366;28;881;-75
2023/02/05 00:48:08;;;;;;;;;;;17.70;48.80;;;;;;10163691;28;909;-75
2023/02/05 00:53:04;;;;;;;;;;;17.70;48.90;;;;;;10163549;28;1915;-76
2023/02/05 00:58:00;;;;;;;;;;;17.70;48.80;;;;;;10164144;28;817;-75
2023/02/05 01:02:55;;;;;;;;;;;17.70;48.90;;;;;;10164689;28;805;-75
2023/02/05 01:07:50;;;;;;;;;;;17.70;48.90;;;;;;10163926;28;861;-75
2023/02/05 01:12:46;;;;;;;;;;;17.70;48.90;;;;;;10163167;28;1914;-75
2023/02/05 01:17:41;;;;;;;;;;;17.70;48.80;;;;;;10164338;28;849;-75
2023/02/05 01:22:36;;;;;;;;;;;17.70;48.90;;;;;;10169579;28;772;-75
2023/02/05 01:27:32;;;;;;;;;;;17.70;48.80;;;;;;10171025;28;870;-75
2023/02/05 01:32:27;;;;;;;;;;;17.70;48.80;;;;;;10170274;28;1907;-76
2023/02/05 01:37:23;;;;;;;;;;;17.70;48.80;;;;;;10169091;28;1290;-75
2023/02/05 01:42:18;;;;;;;;;;;17.70;48.70;;;;;;10170725;28;887;-75
2023/02/05 01:47:13;;;;;;;;;;;17.70;48.80;;;;;;10169653;28;834;-75
2023/02/05 01:52:09;;;;;;;;;;;17.70;48.80;;;;;;10169427;28;1979;-75
2023/02/05 01:57:04;;;;;;;;;;;17.70;48.80;;;;;;10169335;28;964;-75
2023/02/05 02:01:59;;;;;;;;;;;17.70;48.70;;;;;;10169152;28;762;-75
2023/02/05 02:06:55;;;;;;;;;;;17.70;48.80;;;;;;10168942;28;775;-75
2023/02/05 02:11:50;;;;;;;;;;;17.70;48.80;;;;;;10168629;28;1910;-75
2023/02/05 02:16:45;;;;;;;;;;;17.70;48.80;;;;;;10168608;28;826;-75
2023/02/05 02:21:41;;;;;;;;;;;17.70;48.90;;;;;;10168420;28;765;-75
2023/02/05 02:26:39;;;;;;;;;;;17.70;49.40;;;;;;10168211;28;833;-76
2023/02/05 02:31:34;;;;;;;;;;;17.60;49.40;;;;;;10167151;28;1906;-75
2023/02/05 02:36:30;;;;;;;;;;;17.60;48.90;;;;;;10167498;28;1158;-75
2023/02/05 02:41:25;;;;;;;;;;;17.60;48.80;;;;;;10167610;28;979;-75
2023/02/05 02:46:21;;;;;;;;;;;17.60;48.80;;;;;;10167501;28;755;-75
2023/02/05 02:51:16;;;;;;;;;;;17.60;48.90;;;;;;10167278;28;1972;-75
2023/02/05 02:56:11;;;;;;;;;;;17.60;48.80;;;;;;10167687;28;821;-75
2023/02/05 03:01:07;;;;;;;;;;;17.70;48.90;;;;;;10166510;28;858;-75
2023/02/05 03:06:02;;;;;;;;;;;17.60;48.70;;;;;;10166804;28;915;-75
2023/02/05 03:10:58;;;;;;;;;;;17.60;48.80;;;;;;10166544;28;1969;-75
2023/02/05 03:15:53;;;;;;;;;;;17.60;48.80;;;;;;10166223;28;996;-75
2023/02/05 03:20:49;;;;;;;;;;;17.50;48.90;;;;;;10165561;28;904;-75
2023/02/05 03:25:44;;;;;;;;;;;17.50;48.90;;;;;;10166526;28;932;-75
2023/02/05 03:30:40;;;;;;;;;;;17.50;49.00;;;;;;10165137;28;1906;-75
2023/02/05 03:35:35;;;;;;;;;;;17.50;49.00;;;;;;10165872;28;1179;-75
2023/02/05 03:40:30;;;;;;;;;;;17.50;49.10;;;;;;10165417;28;913;-75
2023/02/05 03:45:26;;;;;;;;;;;17.50;49.00;;;;;;10165413;28;866;-75
2023/02/05 03:50:21;;;;;;;;;;;17.50;49.00;;;;;;10164923;28;1914;-75
2023/02/05 03:55:16;;;;;;;;;;;17.50;49.00;;;;;;10164920;28;956;-75
2023/02/05 04:00:12;;;;;;;;;;;17.50;48.90;;;;;;10165375;28;835;-75
2023/02/05 04:05:07;;;;;;;;;;;17.60;48.80;;;;;;10164065;28;1088;-75
2023/02/05 04:10:02;;;;;;;;;;;17.60;48.70;;;;;;10165425;28;1906;-75
2023/02/05 04:14:58;;;;;;;;;;;17.60;48.70;;;;;;10164975;28;764;-75
2023/02/05 04:19:53;;;;;;;;;;;17.60;48.70;;;;;;10164238;28;849;-75
2023/02/05 04:24:48;;;;;;;;;;;17.60;48.70;;;;;;10164455;28;830;-75
2023/02/05 04:29:44;;;;;;;;;;;17.50;48.80;;;;;;10164331;28;1973;-75
2023/02/05 04:34:39;;;;;;;;;;;17.50;48.80;;;;;;10163655;28;1468;-77
2023/02/05 04:39:35;;;;;;;;;;;17.50;48.80;;;;;;10164765;28;943;-75
2023/02/05 04:44:30;;;;;;;;;;;17.50;48.90;;;;;;10164505;28;980;-75
2023/02/05 04:49:25;;;;;;;;;;;17.50;48.90;;;;;;10163610;28;1967;-75
2023/02/05 04:54:21;;;;;;;;;;;17.50;48.90;;;;;;10164687;28;782;-75
2023/02/05 04:59:16;;;;;;;;;;;17.50;48.90;;;;;;10171520;28;956;-75
2023/02/05 05:04:11;;;;;;;;;;;17.50;48.90;;;;;;10171679;28;839;-75
2023/02/05 05:09:07;;;;;;;;;;;17.50;48.80;;;;;;10153605;28;1947;-75
2023/02/05 05:14:02;;;;;;;;;;;17.50;48.80;;;;;;10171471;28;1028;-75
2023/02/05 05:18:57;;;;;;;;;;;17.50;48.80;;;;;;10170824;28;753;-75
2023/02/05 05:23:53;;;;;;;;;;;17.50;48.70;;;;;;10171237;28;913;-75
2023/02/05 05:28:48;;;;;;;;;;;17.60;48.70;;;;;;10170983;28;1907;-75
2023/02/05 05:33:43;;;;;;;;;;;17.60;48.70;;;;;;10170518;28;929;-75
2023/02/05 05:38:39;;;;;;;;;;;17.60;48.70;;;;;;10170798;28;1306;-75
2023/02/05 05:43:46;;;;;;;;;;;17.60;48.60;;;;;;10169883;28;870;-75
2023/02/05 05:48:42;;;;;;;;;;;17.60;48.60;;;;;;10170067;28;1910;-75
2023/02/05 05:53:37;;;;;;;;;;;17.60;48.60;;;;;;10169501;28;870;-75
2023/02/05 05:58:32;;;;;;;;;;;17.60;48.70;;;;;;10169954;28;881;-75
2023/02/05 06:03:28;;;;;;;;;;;17.60;48.60;;;;;;10169750;28;901;-75
2023/02/05 06:08:23;;;;;;;;;;;17.60;48.60;;;;;;10169046;28;1002;-75
2023/02/05 06:13:18;;;;;;;;;;;17.60;48.50;;;;;;10168319;28;1894;-75
2023/02/05 06:18:14;;;;;;;;;;;17.60;48.50;;;;;;10169255;28;858;-75
2023/02/05 06:23:09;;;;;;;;;;;17.60;48.50;;;;;;10169029;28;806;-75
2023/02/05 06:28:04;;;;;;;;;;;17.60;48.50;;;;;;10168829;28;822;-75
2023/02/05 06:33:00;;;;;;;;;;;17.60;48.50;;;;;;10168593;28;1914;-83
2023/02/05 06:37:55;;;;;;;;;;;17.70;48.50;;;;;;10167868;28;1278;-81
2023/02/05 06:42:51;;;;;;;;;;;17.60;48.40;;;;;;10168257;28;841;-73
2023/02/05 06:47:46;;;;;;;;;;;17.60;48.50;;;;;;10167488;28;890;-73
2023/02/05 06:52:41;;;;;;;;;;;17.60;48.30;;;;;;10167272;28;1914;-72
2023/02/05 06:57:37;;;;;;;;;;;17.60;48.30;;;;;;10167696;28;889;-72
2023/02/05 07:02:32;;;;;;;;;;;17.60;48.30;;;;;;10166892;28;860;-81
2023/02/05 07:07:27;;;;;;;;;;;17.60;48.30;;;;;;10166741;28;882;-84
2023/02/05 07:12:23;;;;;;;;;;;17.60;48.30;;;;;;10165761;28;1906;-81
2023/02/05 07:17:19;;;;;;;;;;;17.60;48.40;;;;;;10164484;28;912;-82
2023/02/05 07:22:15;;;;;;;;;;;17.60;48.30;;;;;;10166113;28;875;-82
2023/02/05 07:27:10;;;;;;;;;;;17.60;48.30;;;;;;10166036;28;818;-84
2023/02/05 07:32:05;;;;;;;;;;;17.60;48.30;;;;;;10165911;28;1906;-83
2023/02/05 07:37:01;;;;;;;;;;;17.60;48.30;;;;;;10165430;28;1222;-82
2023/02/05 07:41:56;;;;;;;;;;;17.60;48.30;;;;;;10165384;28;792;-82
2023/02/05 07:46:52;;;;;;;;;;;17.60;48.40;;;;;;10165484;28;951;-83
2023/02/05 07:51:47;;;;;;;;;;;17.60;48.30;;;;;;10164990;28;1914;-85
2023/02/05 07:56:43;;;;;;;;;;;17.70;48.40;;;;;;10164939;28;955;-82
2023/02/05 08:01:38;;;;;;;;;;;17.70;48.50;;;;;;10164757;28;757;-83
2023/02/05 08:06:33;;;;;;;;;;;17.60;48.50;;;;;;10163563;28;1210;-82
2023/02/05 08:11:29;;;;;;;;;;;17.60;48.50;;;;;;10164451;28;1906;-75
2023/02/05 08:16:24;;;;;;;;;;;17.60;48.50;;;;;;10163356;28;981;-75
2023/02/05 08:21:20;;;;;;;;;;;17.80;48.60;;;;;;10164236;28;872;-73
2023/02/05 08:26:16;;;;;;;;;;;17.90;48.80;;;;;;10164239;28;763;-75
2023/02/05 08:31:11;;;;;;;;;;;17.90;49.00;;;;;;10163890;28;1906;-76
2023/02/05 08:36:06;;;;;;;;;;;17.90;49.30;;;;;;10163434;28;1273;-75
2023/02/05 08:41:02;;;;;;;;;;;17.90;49.20;;;;;;10163900;28;954;-76
2023/02/05 08:45:57;;;;;;;;;;;17.90;49.10;;;;;;10163304;28;1199;-80
2023/02/05 08:50:52;;;;;;;;;;;17.90;49.30;;;;;;10164250;28;1906;-81
2023/02/05 08:55:48;;;;;;;;;;;17.80;49.40;;;;;;10163211;28;773;-80
2023/02/05 09:00:43;;;;;;;;;;;17.70;49.40;;;;;;10164732;28;960;-82
2023/02/05 09:05:38;;;;;;;;;;;17.70;49.50;;;;;;10163388;28;1000;-86
2023/02/05 09:10:34;;;;;;;;;;;17.70;49.40;;;;;;10163313;28;1973;-77
2023/02/05 09:15:29;;;;;;;;;;;17.60;49.40;;;;;;10163165;28;874;-82
2023/02/05 09:20:25;;;;;;;;;;;17.70;49.40;;;;;;10163210;28;839;-81
2023/02/05 09:25:20;;;;;;;;;;;17.60;49.40;;;;;;10163445;28;853;-81
2023/02/05 09:30:15;;;;;;;;;;;17.50;49.40;;;;;;10162920;28;1910;-81
2023/02/05 09:35:11;;;;;;;;;;;17.50;49.30;;;;;;10161866;28;1143;-80
2023/02/05 09:40:06;;;;;;;;;;;17.50;49.30;;;;;;10163726;28;908;-85
2023/02/05 09:45:02;;;;;;;;;;;17.50;48.80;;;;;;10169481;28;896;-86
2023/02/05 09:49:58;;;;;;;;;;;17.60;48.90;;;;;;10170698;28;1918;-77
2023/02/05 09:54:53;;;;;;;;;;;17.60;48.80;;;;;;10168720;28;932;-75
2023/02/05 09:59:49;;;;;;;;;;;17.60;49.10;;;;;;10169172;28;850;-76
2023/02/05 10:04:44;;;;;;;;;;;17.80;49.40;;;;;;10168847;28;975;-75
2023/02/05 10:09:39;;;;;;;;;;;17.90;49.40;;;;;;10169282;28;1965;-74
2023/02/05 10:14:35;;;;;;;;;;;17.90;49.50;;;;;;10168773;28;1215;-75
2023/02/05 10:19:33;;;;;;;;;;;18.00;49.60;;;;;;10168411;28;1054;-75
2023/02/05 10:24:29;;;;;;;;;;;18.00;49.60;;;;;;10168782;28;880;-75
2023/02/05 10:29:24;;;;;;;;;;;18.00;49.40;;;;;;10168084;28;1906;-75
2023/02/05 10:34:20;;;;;;;;;;;18.00;49.30;;;;;;10168404;28;790;-75
2023/02/05 10:39:15;;;;;;;;;;;18.00;49.50;;;;;;10168101;28;1179;-75
2023/02/05 10:44:10;;;;;;;;;;;18.00;49.50;;;;;;10167513;28;784;-70
2023/02/05 10:49:06;;;;;;;;;;;18.00;49.70;;;;;;10167168;28;1982;-74
2023/02/05 10:54:01;;;;;;;;;;;18.00;49.80;;;;;;10165948;28;927;-73
2023/02/05 10:58:57;;;;;;;;;;;18.00;50.10;;;;;;10167514;28;830;-73
2023/02/05 11:03:52;;;;;;;;;;;18.00;50.10;;;;;;10166654;28;875;-74
2023/02/05 11:08:47;;;;;;;;;;;18.00;50.00;;;;;;10166766;28;771;-74
2023/02/05 11:13:43;;;;;;;;;;;18.00;50.00;;;;;;10166125;28;1980;-73
2023/02/05 11:18:38;;;;;;;;;;;18.00;50.10;;;;;;10166583;28;924;-73
2023/02/05 11:23:38;;;;;;;;;;;18.00;50.10;;;;;;10166193;28;873;-73
2023/02/05 11:28:38;;;;;;;;;;;18.00;50.20;;;;;;10165954;28;862;-73
2023/02/05 11:33:33;;;;;;;;;;;18.00;50.00;;;;;;10165670;28;1969;-73
2023/02/05 11:38:29;;;;;;;;;;;18.10;50.00;;;;;;10166161;28;1226;-73
2023/02/05 11:43:24;;;;;;;;;;;18.10;50.00;;;;;;10164703;28;1243;-73
2023/02/05 11:48:20;;;;;;;;;;;18.10;50.00;;;;;;10164741;28;865;-73
2023/02/05 11:53:15;;;;;;;;;;;18.00;50.00;;;;;;10164118;28;1978;-72
2023/02/05 11:58:10;;;;;;;;;;;18.10;50.10;;;;;;10164450;28;853;-73
2023/02/05 12:03:06;;;;;;;;;;;18.00;50.10;;;;;;10164284;28;826;-73
2023/02/05 12:08:01;;;;;;;;;;;18.00;50.00;;;;;;10164733;28;896;-72
2023/02/05 12:12:57;;;;;;;;;;;18.00;50.20;;;;;;10163928;28;1883;-73
2023/02/05 12:17:52;;;;;;;;;;;18.00;50.30;;;;;;10164005;28;905;-73
2023/02/05 12:22:47;;;;;;;;;;;18.00;50.10;;;;;;10164316;28;858;-74
2023/02/05 12:27:43;;;;;;;;;;;18.00;50.10;;;;;;10163178;28;775;-73
2023/02/05 12:32:38;;;;;;;;;;;18.00;50.20;;;;;;10163193;28;1959;-73
2023/02/05 12:37:33;;;;;;;;;;;18.00;50.30;;;;;;10164121;28;1403;-73
2023/02/05 12:42:29;;;;;;;;;;;18.00;50.40;;;;;;10163552;28;813;-74
2023/02/05 12:47:24;;;;;;;;;;;18.00;50.30;;;;;;10163473;28;899;-73
2023/02/05 12:52:20;;;;;;;;;;;18.00;50.30;;;;;;10163547;28;1903;-71
2023/02/05 12:57:15;;;;;;;;;;;18.00;50.30;;;;;;10163645;28;784;-72
2023/02/05 13:02:11;;;;;;;;;;;18.00;50.40;;;;;;10164145;28;796;-73
2023/02/05 13:07:07;;;;;;;;;;;18.10;50.30;;;;;;10163434;28;891;-73
2023/02/05 13:12:03;;;;;;;;;;;18.00;50.20;;;;;;10163187;28;1902;-72
2023/02/05 13:16:59;;;;;;;;;;;18.00;50.30;;;;;;10167557;28;857;-73
2023/02/05 13:32:22;;;;;;;;;;;18.00;50.30;;;;;;10170026;28;1906;-73
2023/02/05 13:37:20;;;;;;;;;;;18.00;50.30;;;;;;10170766;28;1983;-73
2023/02/05 13:42:15;;;;;;;;;;;18.00;50.30;;;;;;10169477;28;2028;-73
2023/02/05 13:47:11;;;;;;;;;;;18.00;50.20;;;;;;10169614;28;814;-73
2023/02/05 13:52:06;;;;;;;;;;;18.00;50.20;;;;;;10169725;28;1962;-71
2023/02/05 13:57:01;;;;;;;;;;;18.00;50.20;;;;;;10169515;28;760;-78
2023/02/05 14:01:59;;;;;;;;;;;18.00;50.20;;;;;;10169585;28;849;-76
2023/02/05 14:06:54;;;;;;;;;;;17.80;50.50;;;;;;10168727;28;844;-77
2023/02/05 14:11:49;;;;;;;;;;;17.70;50.70;;;;;;10168594;28;1961;-74
2023/02/05 14:16:46;;;;;;;;;;;17.70;50.60;;;;;;10169039;28;768;-76
2023/02/05 14:21:41;;;;;;;;;;;17.90;50.60;;;;;;10169180;28;822;-76
2023/02/05 14:26:37;;;;;;;;;;;18.00;50.40;;;;;;10167876;28;765;-75
2023/02/05 14:31:32;;;;;;;;;;;18.00;50.30;;;;;;10167890;28;1902;-77
2023/02/05 14:36:28;;;;;;;;;;;18.10;50.90;;;;;;10169105;28;1454;-76
2023/02/05 14:41:24;;;;;;;;;;;18.10;50.20;;;;;;10168628;28;966;-75
2023/02/05 14:46:19;;;;;;;;;;;18.10;50.20;;;;;;10167428;28;788;-75
2023/02/05 14:51:15;;;;;;;;;;;18.10;50.30;;;;;;10167861;28;1918;-75
2023/02/05 14:56:10;;;;;;;;;;;18.00;50.30;;;;;;10166995;28;889;-75
2023/02/05 15:01:05;;;;;;;;;;;18.00;50.40;;;;;;10166306;28;800;-75
2023/02/05 15:06:01;;;;;;;;;;;18.00;50.40;;;;;;10166672;28;900;-76
2023/02/05 15:10:56;;;;;;;;;;;18.00;50.40;;;;;;10166325;28;1898;-75
2023/02/05 15:15:51;;;;;;;;;;;18.10;50.40;;;;;;10166932;28;857;-75
2023/02/05 15:20:48;;;;;;;;;;;18.10;50.40;;;;;;10166005;28;905;-76
2023/02/05 15:25:43;;;;;;;;;;;18.10;51.00;;;;;;10165717;28;903;-76
2023/02/05 15:30:38;;;;;;;;;;;18.00;50.40;;;;;;10165626;28;1959;-75
2023/02/05 15:35:35;;;;;;;;;;;18.10;51.00;;;;;;10163087;28;1278;-76
2023/02/05 15:40:30;;;;;;;;;;;18.10;50.40;;;;;;10163995;28;920;-75
2023/02/05 15:45:26;;;;;;;;;;;18.10;50.40;;;;;;10164891;28;874;-76
2023/02/05 15:50:21;;;;;;;;;;;18.10;50.40;;;;;;10164772;28;1907;-75
2023/02/05 15:55:16;;;;;;;;;;;18.10;50.30;;;;;;10165401;28;801;-77
2023/02/05 16:00:12;;;;;;;;;;;18.10;50.30;;;;;;10165207;28;806;-76
2023/02/05 16:05:09;;;;;;;;;;;18.10;50.30;;;;;;10164514;28;782;-75
2023/02/05 16:10:04;;;;;;;;;;;18.10;50.40;;;;;;10164692;28;1894;-72
2023/02/05 16:15:00;;;;;;;;;;;18.00;50.50;;;;;;10164247;28;822;-76
2023/02/05 16:19:55;;;;;;;;;;;18.00;50.50;;;;;;10164709;28;786;-76
2023/02/05 16:24:50;;;;;;;;;;;18.00;50.50;;;;;;10163963;28;814;-75
2023/02/05 16:29:46;;;;;;;;;;;18.00;50.40;;;;;;10163797;28;1903;-76
2023/02/05 16:34:42;;;;;;;;;;;18.10;50.40;;;;;;10164550;28;1217;-77
2023/02/05 16:39:38;;;;;;;;;;;18.10;50.40;;;;;;10163608;28;905;-76
2023/02/05 16:44:34;;;;;;;;;;;18.10;50.40;;;;;;10164433;28;802;-69
2023/02/05 16:49:30;;;;;;;;;;;18.10;50.40;;;;;;10165680;28;1977;-75
2023/02/05 16:54:25;;;;;;;;;;;18.00;50.40;;;;;;10171804;28;1006;-75
2023/02/05 16:59:21;;;;;;;;;;;18.10;50.30;;;;;;10173087;28;838;-78
2023/02/05 17:04:17;;;;;;;;;;;18.10;50.20;;;;;;10171481;28;833;-76
2023/02/05 17:09:12;;;;;;;;;;;17.90;50.50;;;;;;10171328;28;1902;-76
2023/02/05 17:14:08;;;;;;;;;;;17.70;50.70;;;;;;10171188;28;765;-75
2023/02/05 17:19:03;;;;;;;;;;;17.60;50.90;;;;;;10170884;28;914;-76
2023/02/05 17:24:00;;;;;;;;;;;17.60;51.00;;;;;;10170923;28;854;-77
2023/02/05 17:28:55;;;;;;;;;;;17.60;51.00;;;;;;10170491;28;912;-79
2023/02/05 17:33:51;;;;;;;;;;;17.60;50.90;;;;;;10170353;28;1938;-78
2023/02/05 17:38:47;;;;;;;;;;;17.60;50.80;;;;;;10169833;28;1542;-78
2023/02/05 17:43:43;;;;;;;;;;;17.60;50.80;;;;;;10169811;28;789;-76
2023/02/05 17:48:38;;;;;;;;;;;17.60;50.80;;;;;;10169867;28;936;-75
2023/02/05 17:53:33;;;;;;;;;;;17.60;50.80;;;;;;10170280;28;1966;-75
2023/02/05 17:58:29;;;;;;;;;;;17.50;50.80;;;;;;10169575;28;785;-74
2023/02/05 18:03:25;;;;;;;;;;;17.50;50.80;;;;;;10168820;28;933;-72
2023/02/05 18:08:20;;;;;;;;;;;17.60;50.80;;;;;;10169422;28;957;-72
2023/02/05 18:13:15;;;;;;;;;;;17.60;50.80;;;;;;10168948;28;1966;-72
2023/02/05 18:18:11;;;;;;;;;;;17.60;50.80;;;;;;10169373;28;878;-72
2023/02/05 18:23:06;;;;;;;;;;;17.50;50.80;;;;;;10169203;28;812;-77
2023/02/05 18:28:02;;;;;;;;;;;17.60;50.70;;;;;;10168847;28;861;-77
2023/02/05 18:32:57;;;;;;;;;;;17.90;50.90;;;;;;10167597;28;1902;-80
2023/02/05 18:37:53;;;;;;;;;;;18.00;50.90;;;;;;10168037;28;1344;-82
2023/02/05 18:42:50;;;;;;;;;;;18.00;50.80;;;;;;10167911;28;802;-79
2023/02/05 18:47:45;;;;;;;;;;;18.10;51.00;;;;;;10167393;28;916;-81
2023/02/05 18:52:41;;;;;;;;;;;18.20;51.10;;;;;;10167355;28;1910;-79
2023/02/05 18:57:36;;;;;;;;;;;18.20;51.00;;;;;;10167344;28;778;-80
2023/02/05 19:02:31;;;;;;;;;;;18.20;51.00;;;;;;10167527;28;810;-80
2023/02/05 19:07:27;;;;;;;;;;;18.10;51.00;;;;;;10167131;28;883;-80
2023/02/05 19:12:22;;;;;;;;;;;18.20;51.20;;;;;;10165649;28;1950;-81
2023/02/05 19:17:19;;;;;;;;;;;18.10;51.10;;;;;;10165811;28;890;-79
2023/02/05 19:22:14;;;;;;;;;;;18.20;51.00;;;;;;10165977;28;971;-79
2023/02/05 19:27:10;;;;;;;;;;;18.10;51.00;;;;;;10165341;28;897;-79
2023/02/05 19:32:05;;;;;;;;;;;18.20;51.00;;;;;;10166424;28;1953;-80
2023/02/05 19:37:01;;;;;;;;;;;18.20;50.90;;;;;;10164064;28;1179;-75
2023/02/05 19:41:56;;;;;;;;;;;18.20;51.00;;;;;;10164847;28;829;-75
2023/02/05 19:46:51;;;;;;;;;;;17.90;51.50;;;;;;10165094;28;811;-82
2023/02/05 19:51:47;;;;;;;;;;;17.80;51.80;;;;;;10164432;28;1914;-74
2023/02/05 19:56:42;;;;;;;;;;;17.70;51.80;;;;;;10165077;28;858;-74
2023/02/05 20:01:38;;;;;;;;;;;17.70;51.70;;;;;;10164141;28;978;-75
2023/02/05 20:06:33;;;;;;;;;;;17.70;51.60;;;;;;10164444;28;852;-74
2023/02/05 20:11:29;;;;;;;;;;;17.70;51.60;;;;;;10163826;28;1902;-74
2023/02/05 20:16:25;;;;;;;;;;;17.70;51.60;;;;;;10164141;28;1704;-74
2023/02/05 20:21:21;;;;;;;;;;;17.70;51.50;;;;;;10163391;28;778;-74
2023/02/05 20:26:20;;;;;;;;;;;17.60;51.40;;;;;;10163334;28;875;-74
2023/02/05 20:31:40;;;;;;;;;;;17.60;51.30;;;;;;10162840;28;1903;-74
2023/02/05 20:36:35;;;;;;;;;;;17.70;51.30;;;;;;10163289;28;1490;-74
2023/02/05 20:41:33;;;;;;;;;;;17.60;51.30;;;;;;10163473;28;888;-74
2023/02/05 20:46:29;;;;;;;;;;;17.60;51.30;;;;;;10163618;28;799;-72
2023/02/05 20:51:24;;;;;;;;;;;17.60;51.30;;;;;;10162564;28;1906;-72
2023/02/05 20:56:19;;;;;;;;;;;17.60;51.20;;;;;;10163960;28;769;-72
2023/02/05 21:01:15;;;;;;;;;;;17.60;51.30;;;;;;10163719;28;972;-72
2023/02/05 21:06:10;;;;;;;;;;;17.60;51.20;;;;;;10161730;28;1175;-72
2023/02/05 21:11:05;;;;;;;;;;;17.60;51.20;;;;;;10123313;28;1907;-72
2023/02/05 21:16:01;;;;;;;;;;;17.50;51.10;;;;;;10123612;28;748;-72
2023/02/05 21:20:56;;;;;;;;;;;17.50;51.20;;;;;;10123285;28;937;-72
2023/02/05 21:25:52;;;;;;;;;;;17.60;51.20;;;;;;10123686;28;920;-72
2023/02/05 21:30:49;;;;;;;;;;;17.60;51.00;;;;;;10123457;28;1914;-75
2023/02/05 21:35:45;;;;;;;;;;;17.60;51.10;;;;;;10123340;28;1189;-75
2023/02/05 21:40:40;;;;;;;;;;;17.50;51.00;;;;;;10130530;28;818;-75
2023/02/05 21:45:35;;;;;;;;;;;17.50;51.00;;;;;;10129798;28;889;-75
2023/02/05 21:50:31;;;;;;;;;;;17.50;51.00;;;;;;10162433;28;1963;-75
2023/02/05 21:55:26;;;;;;;;;;;17.60;51.00;;;;;;10169671;28;917;-75
2023/02/05 22:00:22;;;;;;;;;;;17.60;50.90;;;;;;10169137;28;739;-75
2023/02/05 22:05:17;;;;;;;;;;;17.50;50.90;;;;;;10169610;28;831;-75
2023/02/05 22:10:12;;;;;;;;;;;17.50;50.90;;;;;;10169245;28;1903;-75
2023/02/05 22:15:08;;;;;;;;;;;17.50;51.00;;;;;;10169421;28;807;-75
2023/02/05 22:20:03;;;;;;;;;;;17.50;50.90;;;;;;10168361;28;776;-75
2023/02/05 22:24:58;;;;;;;;;;;17.50;50.90;;;;;;10168649;28;904;-75
2023/02/05 22:29:54;;;;;;;;;;;17.50;50.90;;;;;;10167932;28;1902;-75
2023/02/05 22:34:49;;;;;;;;;;;17.50;50.90;;;;;;10167433;28;1218;-75
2023/02/05 22:39:45;;;;;;;;;;;17.50;50.80;;;;;;10167712;28;1270;-75
2023/02/05 22:44:40;;;;;;;;;;;17.50;50.90;;;;;;10167396;28;748;-75
2023/02/05 22:49:36;;;;;;;;;;;17.50;50.90;;;;;;10149529;28;1971;-74
2023/02/05 22:54:31;;;;;;;;;;;17.50;50.80;;;;;;10167279;28;804;-75
2023/02/05 22:59:26;;;;;;;;;;;17.50;50.80;;;;;;10167689;28;856;-75
2023/02/05 23:04:22;;;;;;;;;;;17.50;50.80;;;;;;10166978;28;867;-75
2023/02/05 23:09:17;;;;;;;;;;;17.50;50.70;;;;;;10166606;28;1898;-74
2023/02/05 23:14:12;;;;;;;;;;;17.50;50.70;;;;;;10167260;28;962;-75
2023/02/05 23:19:08;;;;;;;;;;;17.50;50.60;;;;;;10166776;28;872;-75
2023/02/05 23:24:03;;;;;;;;;;;17.50;50.70;;;;;;10166101;28;1648;-75
2023/02/05 23:28:59;;;;;;;;;;;17.50;50.80;;;;;;10165905;28;1083;-75
2023/02/05 23:33:54;;;;;;;;;;;17.50;50.70;;;;;;10172145;28;1957;-75
2023/02/05 23:38:49;;;;;;;;;;;17.50;50.60;;;;;;10206341;28;1249;-75
2023/02/05 23:43:45;;;;;;;;;;;17.50;50.60;;;;;;10205345;28;908;-75
2023/02/05 23:48:40;;;;;;;;;;;17.50;50.70;;;;;;10205278;28;840;-75
2023/02/05 23:53:35;;;;;;;;;;;17.50;50.60;;;;;;10204646;28;1987;-75
2023/02/05 23:58:31;;;;;;;;;;;17.50;50.60;;;;;;10205069;28;846;-75
